Terminal Aerodrome Forecast
Issued by NWS Cleveland, OH

Home | Current Version | Previous Version | Text Only | Print | Product List | Glossary Off
Versions: 1 2 3 4 5 6 7 8 9 10 11 12 13 14 15 16

000
FTUS41 KCLE 161459 AAA
TAFMFD
TAF AMD
KMFD 161459Z 1615/1712 29010KT P6SM VCSH SCT025 OVC035
      TEMPO 1615/1618 5SM -SHSN BKN025
     FM161800 28008KT P6SM SCT035
     FM170100 15006KT P6SM OVC100=

USA.gov is the U.S. government's official web portal to all federal, state and local government web resources and services.